Time;durP1;ratioP1;P1;durP2;ratioP2;P2;SDS_P1;SDS_P2;PMS_P1;PMS_P2;Temp;Humidity;BMP_temperature;BMP_pressure;BME280_temperature;BME280_humidity;BME280_pressure;Samples;Min_cycle;Max_cycle;Signal;HPM_P1;HPM_P2
2021/03/03 00:01:15;;;;;;;138.83;79.13;;;0.10;99.90;;;;;;4850293;28;20221;-76
2021/03/03 00:03:37;;;;;;;146.27;87.40;;;0.10;99.90;;;;;;4846515;28;20542;-79
2021/03/03 00:05:59;;;;;;;135.33;77.47;;;0.10;99.90;;;;;;4847018;28;20209;-79
2021/03/03 00:08:21;;;;;;;125.37;74.07;;;0.10;99.90;;;;;;4845668;28;20325;-79
2021/03/03 00:10:44;;;;;;;134.63;77.70;;;0.00;99.90;;;;;;4845986;28;20641;-80
2021/03/03 00:13:07;;;;;;;125.23;73.83;;;-0.10;99.90;;;;;;4845127;28;20218;-79
2021/03/03 00:15:29;;;;;;;121.83;73.60;;;-0.20;99.90;;;;;;4849127;28;20236;-79
2021/03/03 00:17:51;;;;;;;120.63;72.40;;;-0.30;99.90;;;;;;4849007;28;20232;-79
2021/03/03 00:20:15;;;;;;;121.30;69.47;;;-0.40;99.90;;;;;;4854097;28;20723;-80
2021/03/03 00:22:37;;;;;;;124.40;72.03;;;-0.50;99.90;;;;;;4849569;28;20226;-79
2021/03/03 00:24:59;;;;;;;121.27;71.87;;;-0.60;99.90;;;;;;4851466;28;20657;-80
2021/03/03 00:27:22;;;;;;;131.80;73.97;;;-0.70;99.90;;;;;;4848367;28;21158;-78
2021/03/03 00:29:44;;;;;;;125.47;72.50;;;-0.80;99.90;;;;;;4843904;28;20191;-80
2021/03/03 00:32:06;;;;;;;124.07;73.37;;;-0.90;99.90;;;;;;4844880;28;20775;-80
2021/03/03 00:34:28;;;;;;;127.50;70.53;;;-1.00;99.90;;;;;;4846996;28;20662;-79
2021/03/03 00:36:50;;;;;;;115.97;69.37;;;-1.10;99.90;;;;;;4847313;28;20291;-79
2021/03/03 00:39:13;;;;;;;116.40;67.33;;;-1.20;99.90;;;;;;4847251;28;20661;-78
2021/03/03 00:41:35;;;;;;;117.40;69.13;;;-1.30;99.90;;;;;;4844348;28;20628;-78
2021/03/03 00:43:58;;;;;;;120.77;70.03;;;-1.30;99.90;;;;;;4845759;28;21262;-78
2021/03/03 00:46:20;;;;;;;128.07;70.97;;;-1.40;99.90;;;;;;4847968;28;21029;-80
2021/03/03 00:48:42;;;;;;;122.23;67.67;;;-1.40;99.90;;;;;;4832616;28;21194;-79
2021/03/03 00:51:05;;;;;;;125.63;69.37;;;-1.30;99.90;;;;;;4851892;28;21181;-77
2021/03/03 00:53:28;;;;;;;127.40;71.07;;;-1.40;99.90;;;;;;4846860;28;20644;-79
2021/03/03 00:55:51;;;;;;;126.80;73.67;;;-1.50;99.90;;;;;;4848449;28;20611;-79
2021/03/03 00:58:18;;;;;;;123.33;71.13;;;-1.40;99.90;;;;;;4845219;28;20714;-78
2021/03/03 01:00:50;;;;;;;120.53;69.60;;;-1.50;99.90;;;;;;4842373;28;20636;-80
2021/03/03 01:03:13;;;;;;;140.13;80.17;;;-1.60;99.90;;;;;;4846204;28;20674;-80
2021/03/03 01:05:40;;;;;;;126.80;72.23;;;-1.60;99.90;;;;;;4846947;28;20647;-79
2021/03/03 01:08:03;;;;;;;122.07;72.33;;;-1.70;99.90;;;;;;4829996;28;20658;-76
2021/03/03 01:10:26;;;;;;;122.87;68.90;;;-1.70;99.90;;;;;;4831434;28;20620;-80
2021/03/03 01:12:49;;;;;;;125.30;70.83;;;-1.70;99.90;;;;;;4841241;28;20707;-79
2021/03/03 01:15:13;;;;;;;127.47;71.10;;;-1.80;99.90;;;;;;4845001;28;21073;-80
2021/03/03 01:17:39;;;;;;;141.70;80.03;;;-1.80;99.90;;;;;;4846723;28;20620;-79
2021/03/03 01:20:02;;;;;;;132.00;74.40;;;-1.80;99.90;;;;;;4846493;28;20654;-79
2021/03/03 01:22:24;;;;;;;127.77;74.93;;;-1.80;99.90;;;;;;4847901;28;20651;-80
2021/03/03 01:24:46;;;;;;;132.87;73.67;;;-1.90;99.90;;;;;;4848996;28;20624;-80
2021/03/03 01:27:08;;;;;;;133.23;79.57;;;-1.90;99.90;;;;;;4838688;28;20679;-79
2021/03/03 01:29:30;;;;;;;127.37;71.03;;;-1.90;99.90;;;;;;4847852;28;20190;-80
2021/03/03 01:31:52;;;;;;;135.90;75.17;;;-1.90;99.90;;;;;;4848270;28;20644;-80
2021/03/03 01:34:15;;;;;;;129.07;72.20;;;-1.90;99.90;;;;;;4846499;28;20674;-78
2021/03/03 01:36:38;;;;;;;129.23;73.43;;;-1.90;99.90;;;;;;4844756;28;20651;-80
2021/03/03 01:39:00;;;;;;;145.90;82.97;;;-1.90;99.90;;;;;;4847297;28;20612;-79
2021/03/03 01:41:22;;;;;;;175.33;92.20;;;-1.90;99.90;;;;;;4845467;28;21266;-80
2021/03/03 01:43:44;;;;;;;154.73;86.97;;;-2.00;99.90;;;;;;4848126;28;20612;-80
2021/03/03 01:46:06;;;;;;;138.13;77.20;;;-2.00;99.90;;;;;;4846208;28;20682;-79
2021/03/03 01:48:28;;;;;;;134.13;75.67;;;-2.00;99.90;;;;;;4846941;28;20615;-81
2021/03/03 01:50:53;;;;;;;128.40;72.63;;;-2.10;99.90;;;;;;4846648;28;21168;-80
2021/03/03 01:53:15;;;;;;;131.70;73.20;;;-2.10;99.90;;;;;;4847142;28;20672;-78
2021/03/03 01:55:37;;;;;;;119.97;67.43;;;-2.10;99.90;;;;;;4850701;28;21246;-79
2021/03/03 01:58:00;;;;;;;119.77;66.87;;;-2.10;99.90;;;;;;4849844;28;20981;-79
2021/03/03 02:00:23;;;;;;;129.43;73.17;;;-2.20;99.90;;;;;;4844976;28;20690;-76
2021/03/03 02:02:46;;;;;;;124.90;72.37;;;-2.20;99.90;;;;;;4833110;28;20623;-77
2021/03/03 02:05:09;;;;;;;134.73;72.07;;;-2.10;99.90;;;;;;4847405;28;20631;-79
2021/03/03 02:07:43;;;;;;;133.03;74.10;;;-2.10;99.90;;;;;;4847287;28;20616;-77
2021/03/03 02:10:11;;;;;;;128.43;71.57;;;-2.10;99.90;;;;;;4848356;28;20611;-79
2021/03/03 02:12:38;;;;;;;129.20;67.97;;;-2.20;99.90;;;;;;4847392;28;20643;-77
2021/03/03 02:15:03;;;;;;;124.33;68.37;;;-2.20;99.90;;;;;;4849668;28;20607;-77
2021/03/03 02:17:27;;;;;;;122.40;67.07;;;-2.20;99.90;;;;;;4855686;28;21250;-79
2021/03/03 02:19:50;;;;;;;111.23;63.87;;;-2.30;99.90;;;;;;4851025;28;20611;-80
2021/03/03 02:22:19;;;;;;;121.40;67.13;;;-2.30;99.90;;;;;;4848030;28;20639;-80
2021/03/03 02:24:51;;;;;;;109.00;63.33;;;-2.30;99.90;;;;;;4848133;28;20643;-79
2021/03/03 02:27:14;;;;;;;102.90;56.10;;;-2.30;99.90;;;;;;4847419;28;20978;-79
2021/03/03 02:29:37;;;;;;;87.67;50.30;;;-2.30;99.90;;;;;;4830343;28;21047;-79
2021/03/03 02:32:00;;;;;;;103.27;58.70;;;-2.30;99.90;;;;;;4830188;28;20671;-78
2021/03/03 02:34:27;;;;;;;95.87;53.80;;;-2.40;99.90;;;;;;4847202;28;20628;-80
2021/03/03 02:36:51;;;;;;;95.73;54.13;;;-2.40;99.90;;;;;;4852088;28;20623;-78
2021/03/03 02:39:15;;;;;;;104.00;55.63;;;-2.40;99.90;;;;;;4831167;28;20628;-78
2021/03/03 02:41:40;;;;;;;102.30;57.80;;;-2.40;99.90;;;;;;4848027;28;20659;-79
2021/03/03 02:44:06;;;;;;;101.87;58.73;;;-2.40;99.90;;;;;;4850411;28;20635;-79
2021/03/03 02:46:29;;;;;;;110.17;59.60;;;-2.40;99.90;;;;;;4848005;28;20672;-80
2021/03/03 02:48:51;;;;;;;109.40;60.77;;;-2.40;99.90;;;;;;4847856;28;21011;-80
2021/03/03 02:51:13;;;;;;;108.33;61.27;;;-2.40;99.90;;;;;;4853015;28;20677;-79
2021/03/03 02:53:35;;;;;;;102.90;56.27;;;-2.30;99.90;;;;;;4846141;28;20690;-77
2021/03/03 02:55:58;;;;;;;102.47;56.33;;;-2.30;99.90;;;;;;4847283;28;20665;-79
2021/03/03 02:58:20;;;;;;;111.43;58.37;;;-2.30;99.90;;;;;;4847700;28;20682;-81
2021/03/03 03:00:44;;;;;;;107.97;58.97;;;-2.40;99.90;;;;;;4829874;28;20867;-79
2021/03/03 03:03:16;;;;;;;103.33;55.80;;;-2.40;99.90;;;;;;4850270;28;20595;-77
2021/03/03 03:05:42;;;;;;;106.17;59.53;;;-2.40;99.90;;;;;;4847328;28;20655;-79
2021/03/03 03:08:08;;;;;;;102.30;57.90;;;-2.40;99.90;;;;;;4854813;28;20600;-79
2021/03/03 03:10:30;;;;;;;108.63;59.07;;;-2.40;99.90;;;;;;4849362;28;20639;-79
2021/03/03 03:12:55;;;;;;;101.17;56.47;;;-2.50;99.90;;;;;;4848571;28;20709;-80
2021/03/03 03:15:21;;;;;;;101.57;59.10;;;-2.50;99.90;;;;;;4848199;28;20623;-75
2021/03/03 03:17:48;;;;;;;106.50;58.30;;;-2.50;99.90;;;;;;4849380;28;20623;-79
2021/03/03 03:20:10;;;;;;;111.00;62.60;;;-2.50;99.90;;;;;;4848903;28;20681;-79
2021/03/03 03:22:34;;;;;;;118.50;67.27;;;-2.50;99.90;;;;;;4849341;28;21128;-74
2021/03/03 03:24:58;;;;;;;93.20;53.13;;;-2.50;99.90;;;;;;4842275;28;21360;-79
2021/03/03 03:27:20;;;;;;;90.43;53.47;;;-2.50;99.90;;;;;;4847251;28;20669;-78
2021/03/03 03:29:45;;;;;;;90.67;52.83;;;-2.60;99.90;;;;;;4846957;28;20651;-79
2021/03/03 03:32:09;;;;;;;93.70;54.83;;;-2.60;99.90;;;;;;4855260;28;20603;-77
2021/03/03 03:34:32;;;;;;;97.20;56.37;;;-2.60;99.90;;;;;;4842256;28;20678;-79
2021/03/03 03:36:55;;;;;;;103.43;55.37;;;-2.60;99.90;;;;;;4848365;28;20628;-79
2021/03/03 03:39:18;;;;;;;106.07;58.13;;;-2.60;99.90;;;;;;4849111;28;20621;-75
2021/03/03 03:41:41;;;;;;;99.53;57.37;;;-2.60;99.90;;;;;;4857068;28;20627;-78
2021/03/03 03:44:05;;;;;;;100.90;58.23;;;-2.60;99.90;;;;;;4849593;28;20938;-76
2021/03/03 03:46:28;;;;;;;104.30;57.37;;;-2.60;99.90;;;;;;4847109;28;20668;-80
2021/03/03 03:48:51;;;;;;;98.27;56.27;;;-2.60;99.90;;;;;;4845561;28;21351;-81
2021/03/03 03:51:14;;;;;;;103.87;57.27;;;-2.60;99.90;;;;;;4852744;28;20627;-80
2021/03/03 03:53:36;;;;;;;95.13;55.43;;;-2.70;99.90;;;;;;4846772;28;20698;-80
2021/03/03 03:55:59;;;;;;;97.23;56.40;;;-2.70;99.90;;;;;;4848032;28;20608;-79
2021/03/03 03:58:21;;;;;;;107.40;59.37;;;-2.70;99.90;;;;;;4837123;28;20636;-79
2021/03/03 04:00:43;;;;;;;99.40;58.80;;;-2.70;99.90;;;;;;4831643;28;20688;-80
2021/03/03 04:03:06;;;;;;;103.73;59.57;;;-2.70;99.90;;;;;;4847712;28;20592;-81
2021/03/03 04:05:29;;;;;;;104.20;58.60;;;-2.70;99.90;;;;;;4849353;28;20693;-80
2021/03/03 04:07:52;;;;;;;105.03;57.23;;;-2.70;99.90;;;;;;4849594;28;20619;-81
2021/03/03 04:10:16;;;;;;;98.70;56.13;;;-2.70;99.90;;;;;;4848409;28;20611;-80
2021/03/03 04:12:38;;;;;;;102.23;58.00;;;-2.70;99.90;;;;;;4847416;28;20671;-79
2021/03/03 04:15:00;;;;;;;102.43;57.67;;;-2.80;99.90;;;;;;4845360;28;21417;-80
2021/03/03 04:17:22;;;;;;;106.70;58.93;;;-2.80;99.90;;;;;;4852621;28;21174;-78
2021/03/03 04:19:44;;;;;;;102.40;60.97;;;-2.80;99.90;;;;;;4846103;28;20678;-81
2021/03/03 04:22:07;;;;;;;113.13;60.60;;;-2.80;99.90;;;;;;4853487;28;20639;-80
2021/03/03 04:24:30;;;;;;;104.97;58.73;;;-2.80;99.90;;;;;;4844399;28;20681;-81
2021/03/03 04:26:52;;;;;;;108.70;59.27;;;-2.80;99.90;;;;;;4848914;28;20615;-81
2021/03/03 04:29:14;;;;;;;102.90;60.17;;;-2.70;99.90;;;;;;4846088;28;20742;-81
2021/03/03 04:31:37;;;;;;;106.47;58.33;;;-2.80;99.90;;;;;;4828217;28;20630;-76
2021/03/03 04:33:59;;;;;;;104.60;59.50;;;-2.90;99.90;;;;;;4846037;28;20703;-80
2021/03/03 04:36:21;;;;;;;113.00;63.17;;;-2.80;99.90;;;;;;4840357;28;20980;-80
2021/03/03 04:38:43;;;;;;;112.40;62.60;;;-2.90;99.90;;;;;;4848931;28;20607;-82
2021/03/03 04:41:06;;;;;;;110.33;62.33;;;-2.90;99.90;;;;;;4846602;28;20953;-80
2021/03/03 04:43:28;;;;;;;113.47;62.07;;;-3.00;99.90;;;;;;4848657;28;20709;-78
2021/03/03 04:45:50;;;;;;;111.20;60.87;;;-3.00;99.90;;;;;;4843823;28;21010;-82
2021/03/03 04:48:13;;;;;;;116.63;63.03;;;-3.00;99.90;;;;;;4847030;28;20604;-82
2021/03/03 04:50:36;;;;;;;116.50;63.63;;;-3.00;99.90;;;;;;4847446;28;21006;-81
2021/03/03 04:52:58;;;;;;;118.77;65.00;;;-3.10;99.90;;;;;;4846945;28;20663;-79
2021/03/03 04:55:20;;;;;;;120.97;65.60;;;-3.10;99.90;;;;;;4846191;28;20688;-82
2021/03/03 04:57:43;;;;;;;120.43;64.70;;;-3.10;99.90;;;;;;4849212;28;21020;-82
2021/03/03 05:00:07;;;;;;;119.90;65.63;;;-3.20;99.90;;;;;;4851161;28;20971;-81
2021/03/03 05:02:29;;;;;;;117.93;63.23;;;-3.20;99.90;;;;;;4838121;28;20669;-82
2021/03/03 05:04:51;;;;;;;113.20;63.47;;;-3.20;99.90;;;;;;4841302;28;20672;-82
2021/03/03 05:07:14;;;;;;;115.10;64.63;;;-3.20;99.90;;;;;;4846643;28;20702;-82
2021/03/03 05:09:36;;;;;;;118.83;65.03;;;-3.20;99.90;;;;;;4830221;28;20624;-81
2021/03/03 05:11:58;;;;;;;122.07;65.63;;;-3.20;99.90;;;;;;4848936;28;21227;-82
2021/03/03 05:14:21;;;;;;;115.53;63.83;;;-3.20;99.90;;;;;;4846492;28;21048;-81
2021/03/03 05:16:44;;;;;;;124.77;70.13;;;-3.30;99.90;;;;;;4848711;28;20611;-83
2021/03/03 05:19:06;;;;;;;114.70;65.27;;;-3.20;99.90;;;;;;4851543;28;20662;-81
2021/03/03 05:21:29;;;;;;;121.27;67.07;;;-3.30;99.90;;;;;;4844362;28;20652;-82
2021/03/03 05:23:51;;;;;;;117.80;64.00;;;-3.20;99.90;;;;;;4844316;28;20644;-83
2021/03/03 05:26:13;;;;;;;123.47;67.90;;;-3.20;99.90;;;;;;4846586;28;20663;-81
2021/03/03 05:28:36;;;;;;;125.93;70.60;;;-3.20;99.90;;;;;;4847580;28;21322;-82
2021/03/03 05:30:59;;;;;;;123.00;69.17;;;-3.20;99.90;;;;;;4853467;28;20615;-81
2021/03/03 05:33:26;;;;;;;131.40;70.53;;;-3.20;99.90;;;;;;4850099;28;20648;-82
2021/03/03 05:35:48;;;;;;;124.93;69.50;;;-3.20;99.90;;;;;;4851885;28;20673;-81
2021/03/03 05:38:10;;;;;;;126.57;69.80;;;-3.20;99.90;;;;;;4856430;28;20737;-82
2021/03/03 05:40:32;;;;;;;129.50;70.60;;;-3.10;99.90;;;;;;4849457;28;20612;-77
2021/03/03 05:42:54;;;;;;;130.83;76.77;;;-3.10;99.90;;;;;;4851541;28;20636;-81
2021/03/03 05:45:18;;;;;;;140.63;78.10;;;-3.10;99.90;;;;;;4832805;28;20637;-82
2021/03/03 05:47:42;;;;;;;138.30;75.70;;;-3.00;99.90;;;;;;4851832;28;20634;-81
2021/03/03 05:50:06;;;;;;;137.33;77.97;;;-2.90;99.90;;;;;;4850135;28;20633;-82
2021/03/03 05:52:32;;;;;;;126.63;74.83;;;-2.90;99.90;;;;;;4850542;28;21278;-81
2021/03/03 05:54:56;;;;;;;135.07;76.27;;;-2.80;99.90;;;;;;4851685;28;20709;-82
2021/03/03 05:57:19;;;;;;;125.13;71.63;;;-2.70;99.90;;;;;;4848048;28;20626;-78
2021/03/03 05:59:41;;;;;;;187.73;108.63;;;-2.70;99.90;;;;;;4848962;28;20980;-79
2021/03/03 06:02:04;;;;;;;146.03;83.40;;;-2.60;99.90;;;;;;4851301;28;20623;-81
2021/03/03 06:04:28;;;;;;;184.30;106.73;;;-2.40;99.90;;;;;;4848716;28;20633;-78
2021/03/03 06:06:50;;;;;;;159.50;93.37;;;-2.30;99.90;;;;;;4851778;28;20643;-82
2021/03/03 06:09:13;;;;;;;160.20;96.07;;;-2.20;99.90;;;;;;4845637;28;20620;-82
2021/03/03 06:11:35;;;;;;;159.47;94.50;;;-2.10;99.90;;;;;;4858823;28;20661;-82
2021/03/03 06:13:59;;;;;;;159.03;93.77;;;-1.90;99.90;;;;;;4859788;28;20655;-80
2021/03/03 06:16:22;;;;;;;143.90;86.13;;;-1.80;99.90;;;;;;4843338;28;21284;-83
2021/03/03 06:18:45;;;;;;;155.27;92.93;;;-1.60;99.90;;;;;;4836937;28;20679;-82
2021/03/03 06:21:24;;;;;;;149.40;88.63;;;-1.50;99.90;;;;;;4848526;28;20605;-81
2021/03/03 06:24:00;;;;;;;150.53;91.03;;;-1.30;99.90;;;;;;4844344;28;20652;-81
2021/03/03 06:26:22;;;;;;;169.90;103.27;;;-1.00;99.90;;;;;;4850570;28;20584;-81
2021/03/03 06:28:46;;;;;;;177.40;103.77;;;-0.80;99.90;;;;;;4851060;28;20618;-82
2021/03/03 06:31:29;;;;;;;207.40;116.83;;;-0.60;99.90;;;;;;4850429;28;20611;-81
2021/03/03 06:33:53;;;;;;;219.17;124.27;;;-0.30;99.90;;;;;;4849840;28;20689;-82
2021/03/03 06:36:21;;;;;;;212.20;121.43;;;0.10;99.90;;;;;;4849390;28;21378;-82
2021/03/03 06:38:44;;;;;;;213.20;127.10;;;0.40;99.90;;;;;;4847601;28;20631;-81
2021/03/03 06:41:07;;;;;;;189.83;112.53;;;0.80;99.90;;;;;;4841988;28;20624;-81
2021/03/03 06:43:31;;;;;;;167.50;105.60;;;1.20;99.90;;;;;;4848719;28;20248;-82
2021/03/03 06:45:54;;;;;;;151.47;96.93;;;1.60;99.90;;;;;;4846928;28;20665;-82
2021/03/03 06:48:34;;;;;;;143.27;90.33;;;2.10;99.90;;;;;;4850417;28;20616;-82
2021/03/03 06:50:57;;;;;;;126.13;80.90;;;2.50;99.90;;;;;;4842785;28;20835;-80
2021/03/03 06:53:32;;;;;;;112.73;74.93;;;2.90;99.90;;;;;;4853000;28;21333;-80
2021/03/03 06:55:54;;;;;;;106.63;69.53;;;3.10;88.80;;;;;;4848827;28;20221;-81
2021/03/03 06:58:27;;;;;;;107.27;67.80;;;3.20;45.00;;;;;;4847384;28;20847;-79
2021/03/03 07:00:49;;;;;;;107.87;66.37;;;3.20;12.00;;;;;;4844329;28;20199;-81
2021/03/03 07:03:28;;;;;;;103.47;66.33;;;3.10;1.00;;;;;;4848471;28;20261;-81
2021/03/03 07:05:50;;;;;;;103.70;67.27;;;3.00;1.00;;;;;;4853869;28;20248;-81
2021/03/03 07:08:12;;;;;;;99.67;65.47;;;2.90;1.00;;;;;;4846046;28;20595;-78
2021/03/03 07:10:35;;;;;;;103.93;65.73;;;2.80;1.00;;;;;;4848004;28;20183;-79
2021/03/03 07:12:57;;;;;;;105.60;66.23;;;2.70;1.00;;;;;;4847548;28;20190;-76
2021/03/03 07:15:30;;;;;;;99.47;67.40;;;2.70;1.00;;;;;;4845053;28;20525;-78
2021/03/03 07:17:52;;;;;;;111.17;71.40;;;2.70;1.00;;;;;;4846273;28;20633;-78
2021/03/03 07:20:16;;;;;;;103.67;70.57;;;2.80;11.50;;;;;;4841548;28;20221;-78
2021/03/03 07:22:40;;;;;;;109.10;71.97;;;3.00;10.80;;;;;;4846122;28;20287;-78
2021/03/03 07:25:04;;;;;;;80.67;55.30;;;3.30;17.10;;;;;;4848195;28;20221;-78
2021/03/03 07:27:27;;;;;;;75.00;48.33;;;3.70;13.00;;;;;;4852775;28;20189;-79
2021/03/03 07:29:51;;;;;;;66.73;45.70;;;3.90;2.70;;;;;;4849660;28;20207;-79
2021/03/03 07:32:13;;;;;;;61.63;42.87;;;4.10;1.00;;;;;;4845011;28;20187;-79
2021/03/03 07:34:36;;;;;;;58.37;41.83;;;4.30;1.00;;;;;;4845644;28;20546;-79
2021/03/03 07:36:59;;;;;;;59.10;38.57;;;4.40;1.00;;;;;;4850341;28;20226;-79
2021/03/03 07:39:25;;;;;;;49.70;34.77;;;4.60;1.00;;;;;;4851298;28;20190;-77
2021/03/03 07:41:48;;;;;;;47.27;33.67;;;4.70;99.90;;;;;;4850788;28;20225;-75
2021/03/03 07:44:13;;;;;;;42.97;31.10;;;4.70;1.00;;;;;;4850388;28;20202;-79
2021/03/03 07:46:38;;;;;;;40.67;27.90;;;4.70;1.00;;;;;;4836310;28;20762;-78
2021/03/03 07:49:01;;;;;;;38.67;27.47;;;4.70;1.00;;;;;;4850506;28;20198;-79
2021/03/03 07:51:23;;;;;;;40.97;25.93;;;4.70;1.00;;;;;;4832876;28;20252;-78
2021/03/03 07:53:46;;;;;;;36.57;25.93;;;5.00;99.90;;;;;;4842972;28;20229;-79
2021/03/03 07:56:09;;;;;;;38.33;26.83;;;5.20;5.60;;;;;;4855549;28;20190;-74
2021/03/03 07:58:32;;;;;;;33.67;24.30;;;5.60;1.00;;;;;;4852963;28;20198;-79
2021/03/03 08:00:55;;;;;;;29.60;20.87;;;5.90;1.00;;;;;;4842688;28;20634;-78
2021/03/03 08:03:45;;;;;;;39.73;28.23;;;6.60;99.90;;;;;;4836278;28;20241;-76
2021/03/03 08:06:36;;;;;;;35.80;24.63;;;7.50;1.00;;;;;;4836176;28;20226;-79
2021/03/03 08:09:13;;;;;;;34.77;26.17;;;8.40;1.00;;;;;;4838334;28;20621;-78
2021/03/03 08:11:36;;;;;;;33.13;24.17;;;9.00;1.00;;;;;;4844249;28;20966;-78
2021/03/03 08:13:58;;;;;;;29.80;22.00;;;9.00;1.00;;;;;;4846530;28;20222;-75
2021/03/03 08:16:21;;;;;;;27.50;21.37;;;8.90;1.00;;;;;;4824945;28;20553;-78
2021/03/03 08:18:53;;;;;;;26.43;21.10;;;8.80;1.00;;;;;;4850731;28;20655;-75
2021/03/03 08:21:25;;;;;;;26.37;18.77;;;8.70;1.00;;;;;;4843798;28;20221;-74
2021/03/03 08:23:48;;;;;;;24.23;18.67;;;9.30;1.00;;;;;;4844536;28;20786;-75
2021/03/03 08:26:32;;;;;;;22.87;17.47;;;9.80;1.00;;;;;;4820353;28;20226;-79
2021/03/03 08:28:55;;;;;;;24.17;18.33;;;9.90;1.00;;;;;;4843128;28;20186;-79
2021/03/03 08:31:28;;;;;;;20.50;17.33;;;9.70;1.00;;;;;;4825654;28;20187;-73
2021/03/03 08:34:02;;;;;;;20.00;17.07;;;9.40;1.00;;;;;;4844870;28;20265;-77
2021/03/03 08:36:48;;;;;;;19.80;16.10;;;9.10;1.00;;;;;;4844737;28;20182;-80
2021/03/03 08:39:30;;;;;;;21.73;16.00;;;8.90;1.00;;;;;;4845458;28;20190;-79
2021/03/03 08:41:52;;;;;;;17.20;12.90;;;8.80;1.00;;;;;;4850805;28;20696;-74
2021/03/03 08:44:15;;;;;;;16.20;13.47;;;8.80;1.00;;;;;;4848911;28;20265;-74
2021/03/03 08:46:49;;;;;;;15.10;13.07;;;8.80;1.00;;;;;;4846000;28;20202;-73
2021/03/03 08:49:28;;;;;;;16.10;13.93;;;8.80;1.00;;;;;;4850328;28;20240;-73
2021/03/03 08:51:50;;;;;;;17.80;13.30;;;8.80;1.00;;;;;;4844749;28;20194;-76
2021/03/03 08:54:13;;;;;;;14.60;11.67;;;8.90;1.00;;;;;;4850529;28;20213;-78
2021/03/03 08:56:38;;;;;;;11.70;10.03;;;9.10;1.00;;;;;;4847508;28;20182;-74
2021/03/03 08:59:07;;;;;;;11.40;9.63;;;9.20;1.00;;;;;;4847082;28;20656;-77
2021/03/03 09:01:56;;;;;;;10.67;9.40;;;9.20;1.00;;;;;;4846521;28;20191;-79
2021/03/03 09:04:20;;;;;;;44.67;12.93;;;9.30;1.00;;;;;;4952438;23;20194;-73
2021/03/03 09:06:46;;;;;;;11.27;10.07;;;9.30;1.00;;;;;;4828364;28;20644;-73
2021/03/03 09:09:08;;;;;;;11.43;10.13;;;9.40;1.00;;;;;;4829441;28;20227;-75
2021/03/03 09:11:30;;;;;;;13.37;10.80;;;9.60;1.00;;;;;;4800726;28;20480;-79
2021/03/03 09:13:56;;;;;;;11.27;10.13;;;9.80;1.00;;;;;;4800499;28;20214;-77
2021/03/03 09:16:18;;;;;;;11.87;10.20;;;10.00;1.00;;;;;;4817814;28;20585;-78
2021/03/03 09:18:41;;;;;;;10.77;9.70;;;10.30;1.00;;;;;;4816594;28;20199;-78
2021/03/03 09:21:11;;;;;;;11.13;9.97;;;10.60;1.00;;;;;;4818348;28;20238;-78
2021/03/03 09:23:33;;;;;;;10.67;9.57;;;11.20;1.00;;;;;;4807416;28;20227;-77
2021/03/03 09:25:55;;;;;;;9.63;8.70;;;11.80;1.00;;;;;;4843357;28;20237;-78
2021/03/03 09:28:18;;;;;;;10.50;9.43;;;12.30;1.00;;;;;;4814179;28;20689;-74
2021/03/03 09:30:40;;;;;;;8.47;7.33;;;12.60;1.00;;;;;;4820957;28;20194;-79
2021/03/03 09:33:06;;;;;;;7.03;6.37;;;13.00;1.00;;;;;;4818128;28;20199;-75
2021/03/03 09:35:31;;;;;;;6.03;5.53;;;13.40;1.00;;;;;;4816840;28;20215;-77
2021/03/03 09:37:53;;;;;;;6.53;5.00;;;13.80;1.00;;;;;;4816830;28;20200;-77
2021/03/03 09:40:18;;;;;;;4.80;4.30;;;14.10;99.90;;;;;;4815760;28;20207;-75
2021/03/03 09:42:42;;;;;;;4.97;4.50;;;14.30;99.90;;;;;;4830635;28;20273;-79
2021/03/03 09:45:06;;;;;;;5.07;4.57;;;14.50;99.90;;;;;;4815453;28;20195;-77
2021/03/03 09:47:32;;;;;;;4.90;4.50;;;14.70;99.90;;;;;;4817200;28;20241;-79
2021/03/03 09:49:55;;;;;;;3.90;3.60;;;14.90;99.90;;;;;;4816864;28;20206;-75
2021/03/03 09:52:18;;;;;;;4.60;4.20;;;15.10;99.90;;;;;;4826839;28;20199;-74
2021/03/03 09:54:41;;;;;;;4.40;4.00;;;15.30;99.90;;;;;;4814345;28;20677;-76
2021/03/03 09:57:10;;;;;;;3.43;3.17;;;15.60;99.90;;;;;;4817875;28;20200;-73
2021/03/03 09:59:33;;;;;;;2.37;2.20;;;16.00;99.90;;;;;;4813873;28;20506;-72
2021/03/03 10:01:55;;;;;;;1.70;1.60;;;16.70;99.90;;;;;;4810120;28;20814;-74
2021/03/03 10:04:18;;;;;;;1.17;1.17;;;17.50;99.90;;;;;;4814085;28;20227;-73
2021/03/03 10:06:40;;;;;;;0.97;0.97;;;19.00;99.90;;;;;;4835952;28;20576;-76
2021/03/03 10:09:04;;;;;;;0.50;0.50;;;21.30;99.90;;;;;;4833763;28;20226;-72
2021/03/03 10:11:26;;;;;;;0.23;0.23;;;23.20;99.90;;;;;;4829295;28;20203;-75
2021/03/03 10:13:48;;;;;;;0.20;0.20;;;25.40;99.90;;;;;;4813187;28;20202;-74
2021/03/03 10:16:17;;;;;;;0.20;0.20;;;27.80;99.90;;;;;;4825709;28;20200;-77
2021/03/03 10:18:39;;;;;;;0.30;0.30;;;30.40;99.90;;;;;;4820745;28;20209;-77
2021/03/03 10:21:01;;;;;;;0.10;0.10;;;32.50;99.90;;;;;;4828831;28;20713;-73
2021/03/03 10:23:25;;;;;;;0.20;0.20;;;34.30;99.90;;;;;;4838488;28;20255;-76
2021/03/03 10:25:50;;;;;;;0.30;0.30;;;35.60;99.90;;;;;;4840105;28;20201;-72
2021/03/03 10:28:15;;;;;;;0.20;0.20;;;37.20;99.90;;;;;;4845312;28;20198;-76
2021/03/03 10:30:39;;;;;;;0.10;0.10;;;38.00;99.90;;;;;;4821626;28;20195;-76
2021/03/03 10:33:03;;;;;;;0.10;0.10;;;39.40;99.90;;;;;;4826487;28;20190;-77
2021/03/03 10:35:26;;;;;;;0.20;0.20;;;40.60;99.90;;;;;;4802716;28;20267;-77
2021/03/03 10:37:49;;;;;;;0.10;0.10;;;41.20;99.90;;;;;;4837030;28;20194;-77
2021/03/03 10:40:12;;;;;;;0.13;0.13;;;41.60;99.90;;;;;;4840447;28;20186;-75
2021/03/03 10:42:35;;;;;;;0.10;0.10;;;42.30;99.90;;;;;;4839905;28;20191;-77
2021/03/03 10:44:58;;;;;;;0.10;0.10;;;42.80;99.90;;;;;;4838053;28;20588;-76
2021/03/03 10:47:40;;;;;;;0.10;0.10;;;43.30;99.90;;;;;;4823025;28;20199;-72
2021/03/03 10:50:07;;;;;;;0.10;0.10;;;43.50;99.90;;;;;;4821517;28;20703;-74
2021/03/03 10:52:29;;;;;;;0.10;0.10;;;44.00;99.90;;;;;;4819526;28;20199;-75
2021/03/03 10:54:51;;;;;;;0.10;0.10;;;44.40;99.90;;;;;;4831863;28;20261;-73
2021/03/03 10:57:13;;;;;;;0.10;0.10;;;44.80;99.90;;;;;;4836915;28;20660;-80
2021/03/03 10:59:38;;;;;;;0.20;0.20;;;45.20;99.90;;;;;;4832952;28;20227;-74
2021/03/03 11:02:01;;;;;;;0.10;0.10;;;45.50;99.90;;;;;;4831040;28;20569;-81
2021/03/03 11:04:37;;;;;;;0.10;0.10;;;46.00;99.90;;;;;;4836854;28;20218;-74
2021/03/03 11:07:02;;;;;;;0.10;0.10;;;45.50;99.90;;;;;;4827708;28;20233;-76
2021/03/03 11:09:24;;;;;;;0.20;0.20;;;45.30;99.90;;;;;;4819755;28;20179;-74
2021/03/03 11:11:48;;;;;;;0.20;0.20;;;45.50;99.90;;;;;;4818981;28;20327;-76
2021/03/03 11:14:10;;;;;;;0.20;0.20;;;45.80;99.90;;;;;;4819087;28;20199;-75
2021/03/03 11:16:33;;;;;;;0.20;0.20;;;45.90;99.90;;;;;;4826092;28;20591;-75
2021/03/03 11:18:55;;;;;;;0.20;0.20;;;45.90;99.90;;;;;;4837969;28;20244;-77
2021/03/03 11:21:18;;;;;;;0.20;0.20;;;46.10;99.90;;;;;;4835964;28;20606;-76
2021/03/03 11:23:41;;;;;;;0.20;0.20;;;46.50;99.90;;;;;;4817783;28;20191;-81
2021/03/03 11:26:03;;;;;;;0.10;0.10;;;46.40;99.90;;;;;;4836189;28;20194;-80
2021/03/03 11:28:26;;;;;;;0.10;0.10;;;45.50;99.90;;;;;;4837244;28;20187;-76
2021/03/03 11:30:48;;;;;;;0.20;0.20;;;45.00;99.90;;;;;;4837985;28;20651;-77
2021/03/03 11:33:11;;;;;;;0.20;0.20;;;44.90;99.90;;;;;;4837994;28;20198;-80
2021/03/03 11:35:33;;;;;;;0.20;0.20;;;45.50;99.90;;;;;;4836635;28;20214;-74
2021/03/03 11:37:55;;;;;;;0.20;0.20;;;46.20;99.90;;;;;;4836766;28;20660;-73
2021/03/03 11:40:18;;;;;;;0.20;0.20;;;47.10;99.90;;;;;;4837547;28;20836;-78
2021/03/03 11:42:40;;;;;;;0.20;0.20;;;47.80;99.90;;;;;;4842698;28;20194;-74
2021/03/03 11:45:02;;;;;;;0.20;0.20;;;48.40;99.90;;;;;;4839970;28;20249;-72
2021/03/03 11:47:24;;;;;;;0.20;0.20;;;48.90;99.90;;;;;;4819654;28;20237;-75
2021/03/03 11:49:47;;;;;;;0.22;0.22;;;49.30;99.90;;;;;;4837008;28;20551;-74
2021/03/03 11:52:09;;;;;;;0.30;0.30;;;49.70;99.90;;;;;;4837736;28;20205;-74
2021/03/03 11:54:32;;;;;;;0.30;0.30;;;50.00;99.90;;;;;;4835681;28;20269;-73
2021/03/03 11:56:54;;;;;;;0.30;0.30;;;50.00;99.90;;;;;;4837190;28;20668;-79
2021/03/03 11:59:16;;;;;;;0.30;0.30;;;50.30;99.90;;;;;;4816314;28;20241;-75
2021/03/03 12:01:38;;;;;;;0.30;0.30;;;50.20;99.90;;;;;;4840223;28;20233;-77
2021/03/03 12:04:00;;;;;;;0.30;0.30;;;50.00;99.90;;;;;;4832572;28;20179;-79
2021/03/03 12:06:23;;;;;;;0.30;0.30;;;50.10;99.90;;;;;;4827357;28;20234;-74
2021/03/03 12:08:45;;;;;;;0.30;0.30;;;49.90;99.90;;;;;;4830380;28;20246;-80
2021/03/03 12:11:08;;;;;;;0.30;0.30;;;50.20;99.90;;;;;;4824277;28;20587;-78
2021/03/03 12:13:30;;;;;;;0.30;0.30;;;50.30;99.90;;;;;;4833888;28;20191;-78
2021/03/03 12:15:52;;;;;;;0.30;0.30;;;50.50;99.90;;;;;;4835383;28;20639;-82